createdAt,value
2022-09-05T00:00:19.455Z,6.20
2022-09-05T00:03:03.811Z,5.37
2022-09-05T00:06:03.174Z,5.80
2022-09-05T00:08:53.441Z,5.43
2022-09-05T00:11:40.457Z,5.50
2022-09-05T00:15:14.937Z,6.73
2022-09-05T00:19:32.551Z,6.37
2022-09-05T00:24:20.227Z,6.70
2022-09-05T00:24:29.813Z,6.07
2022-09-05T00:26:33.036Z,5.43
2022-09-05T00:29:20.369Z,6.50
2022-09-05T00:32:15.104Z,5.53
2022-09-05T00:35:19.131Z,6.50
2022-09-05T00:37:51.271Z,6.23
2022-09-05T00:40:27.224Z,6.10
2022-09-05T00:42:59.652Z,6.70
2022-09-05T00:45:34.864Z,6.10
2022-09-05T00:48:17.731Z,7.83
2022-09-05T00:50:59.278Z,5.90
2022-09-05T00:53:38.752Z,5.50
2022-09-05T00:56:21.840Z,6.30
2022-09-05T00:59:05.016Z,6.73
2022-09-05T01:01:43.026Z,6.33
2022-09-05T01:04:33.669Z,6.63
2022-09-05T01:07:23.912Z,6.60
2022-09-05T01:10:05.399Z,6.70
2022-09-05T01:13:03.046Z,6.50
2022-09-05T01:15:37.639Z,5.47
2022-09-05T01:18:23.096Z,5.87
2022-09-05T01:21:05.892Z,6.80
2022-09-05T01:24:02.005Z,6.63
2022-09-05T01:26:58.585Z,6.13
2022-09-05T01:29:35.884Z,6.87
2022-09-05T01:32:18.272Z,6.00
2022-09-05T01:35:02.601Z,6.50
2022-09-05T01:37:38.540Z,5.23
2022-09-05T01:40:20.689Z,6.63
2022-09-05T01:43:05.636Z,5.73
2022-09-05T01:45:52.853Z,6.30
2022-09-05T01:48:33.224Z,6.90
2022-09-05T01:51:29.038Z,6.40
2022-09-05T01:54:24.105Z,5.87
2022-09-05T01:57:08.151Z,7.57
2022-09-05T01:59:46.820Z,6.93
2022-09-05T02:02:27.826Z,5.97
2022-09-05T02:05:48.553Z,6.77
2022-09-05T02:08:46.909Z,6.53
2022-09-05T02:11:16.365Z,6.37
2022-09-05T02:14:09.755Z,6.33
2022-09-05T02:16:44.676Z,6.87
2022-09-05T02:19:20.644Z,6.50
2022-09-05T02:21:58.849Z,5.80
2022-09-05T02:24:35.402Z,6.20
2022-09-05T02:27:48.955Z,6.93
2022-09-05T02:30:16.611Z,6.03
2022-09-05T02:32:54.604Z,6.20
2022-09-05T02:35:31.259Z,6.63
2022-09-05T02:40:53.509Z,6.47
2022-09-05T02:45:08.327Z,6.80
2022-09-05T02:45:09.109Z,6.33
2022-09-05T02:46:51.179Z,5.47
2022-09-05T02:52:07.370Z,6.83
2022-09-05T02:57:28.265Z,5.90
2022-09-05T02:57:32.899Z,6.43
2022-09-05T02:58:53.277Z,7.10
2022-09-05T03:01:32.550Z,6.10
2022-09-05T03:04:22.016Z,6.27
2022-09-05T03:07:02.562Z,6.00
2022-09-05T03:09:44.173Z,6.97
2022-09-05T03:12:55.731Z,6.60
2022-09-05T03:16:02.579Z,6.40
2022-09-05T03:19:22.914Z,5.60
2022-09-05T03:22:37.075Z,6.10
2022-09-05T03:25:41.479Z,6.40
2022-09-05T03:28:52.045Z,6.13
2022-09-05T03:31:35.102Z,6.50
2022-09-05T03:34:47.947Z,6.10
2022-09-05T03:37:51.957Z,6.17
2022-09-05T03:40:45.235Z,6.33
2022-09-05T03:43:50.043Z,6.57
2022-09-05T03:46:54.225Z,6.07
2022-09-05T03:52:04.496Z,6.67
2022-09-05T03:57:11.160Z,6.20
2022-09-05T03:57:24.719Z,6.27
2022-09-05T03:59:09.773Z,6.07
2022-09-05T04:05:10.938Z,6.30
2022-09-05T04:08:17.423Z,6.43
2022-09-05T04:08:24.043Z,6.00
2022-09-05T04:10:27.720Z,6.60
2022-09-05T04:13:00.648Z,6.13
2022-09-05T04:15:36.906Z,6.60
2022-09-05T04:18:13.435Z,6.27
2022-09-05T04:20:47.849Z,7.10
2022-09-05T04:23:29.743Z,6.90
2022-09-05T04:26:11.952Z,6.83
2022-09-05T04:28:59.446Z,7.53
2022-09-05T04:31:38.442Z,7.50
2022-09-05T04:34:32.078Z,7.57
2022-09-05T04:37:03.409Z,8.17
2022-09-05T04:39:33.327Z,9.37
2022-09-05T04:42:15.396Z,8.77
2022-09-05T04:44:48.917Z,7.50
2022-09-05T04:47:23.310Z,8.33
2022-09-05T04:49:56.721Z,8.30
2022-09-05T04:52:51.800Z,9.53
2022-09-05T04:55:24.825Z,10.20
2022-09-05T04:57:58.884Z,9.63
2022-09-05T05:06:05.268Z,8.40
2022-09-05T05:06:12.390Z,8.60
2022-09-05T05:06:43.803Z,7.90
2022-09-05T05:09:18.880Z,7.50
2022-09-05T05:17:58.148Z,6.93
2022-09-05T05:18:09.264Z,7.43
2022-09-05T05:18:11.818Z,7.67
2022-09-05T05:20:42.643Z,6.57
2022-09-05T05:23:15.920Z,6.60
2022-09-05T05:25:49.477Z,5.83
2022-09-05T05:28:27.033Z,6.97
2022-09-05T05:31:01.878Z,7.80
2022-09-05T05:33:34.826Z,6.77
2022-09-05T05:36:09.339Z,8.63
2022-09-05T05:38:45.133Z,5.93
2022-09-05T05:41:21.587Z,5.50
2022-09-05T05:43:51.847Z,6.07
2022-09-05T05:46:31.715Z,5.70
2022-09-05T05:49:23.439Z,5.77
2022-09-05T05:52:13.792Z,5.83
2022-09-05T05:54:50.652Z,6.73
2022-09-05T05:57:41.109Z,5.83
2022-09-05T06:00:27.481Z,5.90
2022-09-05T06:03:39.775Z,5.97
2022-09-05T06:06:21.800Z,6.07
2022-09-05T06:14:49.679Z,6.30
2022-09-05T06:15:01.922Z,6.50
2022-09-05T06:16:05.814Z,5.40
2022-09-05T06:19:11.676Z,6.80
2022-09-05T06:22:14.943Z,6.00
2022-09-05T06:25:16.739Z,6.00
2022-09-05T06:28:19.030Z,6.80
2022-09-05T06:30:59.285Z,8.00
2022-09-05T06:33:56.860Z,6.60
2022-09-05T06:36:39.324Z,6.37
2022-09-05T06:39:14.941Z,6.30
2022-09-05T06:42:03.155Z,6.30
2022-09-05T06:44:55.655Z,6.07
2022-09-05T06:47:33.694Z,6.70
2022-09-05T06:50:24.551Z,6.03
2022-09-05T06:53:21.163Z,5.13
2022-09-05T06:56:06.722Z,6.00
2022-09-05T06:59:08.988Z,6.20
2022-09-05T07:02:00.520Z,5.63
2022-09-05T07:05:24.165Z,6.53
2022-09-05T07:07:35.386Z,6.50
2022-09-05T07:10:34.672Z,5.73
2022-09-05T07:13:01.791Z,5.20
2022-09-05T07:15:39.639Z,6.30
2022-09-05T07:18:18.677Z,6.17
2022-09-05T07:21:16.946Z,6.57
2022-09-05T07:24:05.794Z,5.53
2022-09-05T07:26:53.751Z,5.83
2022-09-05T07:29:29.707Z,5.90
2022-09-05T07:32:01.944Z,5.03
2022-09-05T07:34:33.233Z,5.77
2022-09-05T07:37:14.916Z,6.60
2022-09-05T07:39:49.464Z,5.37
2022-09-05T07:42:24.749Z,5.93
2022-09-05T07:44:56.669Z,5.10
2022-09-05T07:47:29.095Z,5.23
2022-09-05T07:53:49.779Z,5.33
2022-09-05T07:56:53.145Z,5.53
2022-09-05T07:56:59.016Z,5.23
2022-09-05T07:58:50.461Z,5.30
2022-09-05T08:01:21.218Z,6.40
2022-09-05T08:03:56.303Z,5.80
2022-09-05T08:07:45.621Z,5.80
2022-09-05T08:10:06.926Z,6.03
2022-09-05T08:12:16.025Z,6.00
2022-09-05T08:14:49.796Z,5.53
2022-09-05T08:17:21.051Z,6.00
2022-09-05T08:20:13.816Z,6.13
2022-09-05T08:22:52.893Z,5.47
2022-09-05T08:25:25.585Z,5.30
2022-09-05T08:28:06.311Z,6.00
2022-09-05T08:30:44.473Z,6.50
2022-09-05T08:33:15.903Z,5.20
2022-09-05T08:35:48.785Z,6.10
2022-09-05T08:38:18.913Z,5.80
2022-09-05T08:40:53.921Z,5.90
2022-09-05T08:45:46.343Z,6.83
2022-09-05T08:46:46.633Z,5.53
2022-09-05T08:49:44.085Z,5.73
2022-09-05T08:52:21.167Z,5.10
2022-09-05T08:55:07.130Z,5.37
2022-09-05T08:57:59.051Z,5.73
2022-09-05T09:00:33.604Z,6.23
2022-09-05T09:03:14.131Z,5.70
2022-09-05T09:06:17.027Z,5.97
2022-09-05T09:09:09.538Z,6.13
2022-09-05T09:11:42.505Z,5.93
2022-09-05T09:14:37.916Z,5.57
2022-09-05T09:17:26.182Z,5.30
2022-09-05T09:20:09.760Z,5.63
2022-09-05T09:22:43.268Z,5.07
2022-09-05T09:25:18.451Z,4.93
2022-09-05T09:28:48.073Z,5.10
2022-09-05T09:31:12.001Z,4.70
2022-09-05T09:33:47.050Z,4.20
2022-09-05T09:36:41.516Z,4.17
2022-09-05T09:39:38.230Z,3.97
2022-09-05T09:42:32.444Z,4.67
2022-09-05T09:45:41.458Z,4.53
2022-09-05T09:48:51.644Z,5.20
2022-09-05T09:51:34.107Z,4.90
2022-09-05T09:54:31.045Z,5.00
2022-09-05T09:57:36.112Z,5.00
2022-09-05T10:00:11.843Z,4.70
2022-09-05T10:08:59.772Z,4.80
2022-09-05T10:10:43.854Z,5.03
2022-09-05T10:10:47.954Z,4.93
2022-09-05T10:13:18.167Z,4.30
2022-09-05T10:16:18.335Z,4.33
2022-09-05T10:19:03.596Z,3.77
2022-09-05T10:22:34.048Z,4.77
2022-09-05T10:25:28.850Z,5.27
2022-09-05T10:28:06.016Z,4.70
2022-09-05T10:32:23.241Z,4.57
2022-09-05T10:35:17.783Z,5.13
2022-09-05T10:36:29.880Z,4.10
2022-09-05T10:39:13.846Z,5.00
2022-09-05T10:41:48.935Z,4.13
2022-09-05T10:44:26.496Z,4.40
2022-09-05T10:47:06.270Z,4.97
2022-09-05T10:49:39.700Z,4.40
2022-09-05T10:52:19.350Z,4.23
2022-09-05T10:55:14.942Z,4.40
2022-09-05T10:57:57.351Z,4.23
2022-09-05T11:02:22.649Z,4.30
2022-09-05T11:03:31.364Z,4.10
2022-09-05T11:06:09.184Z,4.70
2022-09-05T11:08:43.781Z,4.10
2022-09-05T11:11:28.686Z,4.80
2022-09-05T11:14:26.708Z,4.43
2022-09-05T11:17:07.041Z,4.93
2022-09-05T11:19:42.844Z,4.20
2022-09-05T11:22:22.962Z,4.57
2022-09-05T11:24:56.984Z,4.80
2022-09-05T11:27:33.333Z,3.77
2022-09-05T11:30:06.374Z,4.83
2022-09-05T11:39:24.026Z,4.40
2022-09-05T11:40:04.229Z,4.33
2022-09-05T11:40:04.702Z,3.70
2022-09-05T11:42:01.155Z,3.97
2022-09-05T11:44:42.303Z,3.40
2022-09-05T11:47:48.982Z,3.53
2022-09-05T11:50:54.347Z,3.60
2022-09-05T11:53:45.396Z,4.00
2022-09-05T11:57:32.175Z,3.50
2022-09-05T12:00:31.465Z,3.20
2022-09-05T12:03:59.331Z,3.70
2022-09-05T12:07:29.825Z,3.63
2022-09-05T12:10:45.743Z,3.63
2022-09-05T12:13:26.346Z,3.50
2022-09-05T12:16:08.076Z,3.50
2022-09-05T12:18:45.682Z,3.47
2022-09-05T12:21:27.327Z,3.80
2022-09-05T12:25:16.623Z,3.27
2022-09-05T12:27:38.929Z,3.27
2022-09-05T12:29:59.768Z,3.30
2022-09-05T12:33:58.354Z,3.50
2022-09-05T12:36:13.159Z,3.40
2022-09-05T12:40:43.638Z,3.80
2022-09-05T12:41:46.048Z,3.60
2022-09-05T12:44:40.228Z,3.33
2022-09-05T12:47:16.947Z,3.43
2022-09-05T12:50:02.445Z,4.03
2022-09-05T12:52:43.288Z,2.87
2022-09-05T12:55:22.393Z,3.87
2022-09-05T13:02:26.395Z,3.07
2022-09-05T13:03:15.400Z,4.43
2022-09-05T13:04:13.284Z,3.90
2022-09-05T13:06:39.153Z,3.77
2022-09-05T13:09:11.720Z,4.00
2022-09-05T13:14:46.842Z,4.40
2022-09-05T13:15:12.471Z,3.37
2022-09-05T13:17:52.006Z,3.60
2022-09-05T13:20:34.378Z,3.23
